Time;durP1;ratioP1;P1;durP2;ratioP2;P2;SDS_P1;SDS_P2;PMS_P1;PMS_P2;Temp;Humidity;BMP_temperature;BMP_pressure;BME280_temperature;BME280_humidity;BME280_pressure;Samples;Min_cycle;Max_cycle;Signal;HPM_P1;HPM_P2
2022/03/29 00:01:01;;;;;;;39.10;19.08;;;6.90;99.90;;;;;;5069425;28;20044;-67
2022/03/29 00:03:27;;;;;;;31.85;19.65;;;6.90;99.90;;;;;;5070767;28;20040;-68
2022/03/29 00:05:53;;;;;;;37.28;19.17;;;6.90;99.90;;;;;;5055369;28;20032;-66
2022/03/29 00:08:18;;;;;;;36.65;18.98;;;6.80;99.90;;;;;;5038198;28;20072;-68
2022/03/29 00:10:45;;;;;;;32.55;17.45;;;6.80;99.90;;;;;;5070298;28;20079;-66
2022/03/29 00:13:10;;;;;;;33.60;18.90;;;6.70;99.90;;;;;;5053677;28;20053;-67
2022/03/29 00:15:36;;;;;;;30.27;17.77;;;6.70;99.90;;;;;;5060767;28;20521;-67
2022/03/29 00:18:02;;;;;;;35.30;18.92;;;6.80;99.90;;;;;;5066184;28;20040;-68
2022/03/29 00:20:28;;;;;;;34.97;18.45;;;6.80;99.90;;;;;;5062670;28;20611;-68
2022/03/29 00:22:53;;;;;;;29.40;17.40;;;6.70;99.90;;;;;;5063179;28;20517;-67
2022/03/29 00:25:19;;;;;;;34.97;18.55;;;6.70;99.90;;;;;;5069018;28;20133;-67
2022/03/29 00:27:45;;;;;;;37.17;18.15;;;6.70;99.90;;;;;;5067964;28;20497;-66
2022/03/29 00:30:12;;;;;;;32.08;19.33;;;6.70;99.90;;;;;;5070192;28;20410;-68
2022/03/29 00:32:40;;;;;;;34.60;18.17;;;6.60;99.90;;;;;;5071357;28;20053;-68
2022/03/29 00:35:06;;;;;;;30.55;19.30;;;6.70;99.90;;;;;;5063007;28;20127;-66
2022/03/29 00:37:33;;;;;;;37.03;19.63;;;6.80;99.90;;;;;;5069227;28;20875;-66
2022/03/29 00:39:58;;;;;;;32.05;18.55;;;6.70;99.90;;;;;;5070659;28;20045;-66
2022/03/29 00:42:24;;;;;;;34.72;18.55;;;6.80;99.90;;;;;;5068906;28;20265;-67
2022/03/29 00:44:50;;;;;;;35.63;19.55;;;6.80;99.90;;;;;;5071591;28;20122;-66
2022/03/29 00:47:15;;;;;;;33.15;17.95;;;6.80;99.90;;;;;;5068759;28;20055;-67
2022/03/29 00:49:41;;;;;;;32.95;19.73;;;6.80;99.90;;;;;;5071853;28;20053;-67
2022/03/29 00:52:08;;;;;;;34.78;19.83;;;6.70;99.90;;;;;;5069438;28;20033;-68
2022/03/29 00:54:38;;;;;;;34.88;20.95;;;6.70;99.90;;;;;;5070557;28;20394;-67
2022/03/29 00:57:05;;;;;;;37.75;20.17;;;6.60;99.90;;;;;;5070291;28;20579;-69
2022/03/29 00:59:31;;;;;;;38.40;20.33;;;6.60;99.90;;;;;;5040313;28;20037;-66
2022/03/29 01:01:57;;;;;;;34.40;19.58;;;6.60;99.90;;;;;;5070089;28;20039;-67
2022/03/29 01:04:25;;;;;;;33.08;19.70;;;6.70;99.90;;;;;;5066565;28;20105;-67
2022/03/29 01:06:57;;;;;;;35.60;20.13;;;6.60;99.90;;;;;;5070743;28;20036;-68
2022/03/29 01:09:24;;;;;;;38.47;20.77;;;6.70;99.90;;;;;;5069997;28;20043;-67
2022/03/29 01:11:50;;;;;;;37.78;20.13;;;6.60;99.90;;;;;;5070952;28;20460;-67
2022/03/29 01:14:16;;;;;;;36.75;19.15;;;6.60;99.90;;;;;;5070109;28;20039;-67
2022/03/29 01:19:26;;;;;;;36.38;19.30;;;6.50;99.90;;;;;;5069053;28;20561;-67
2022/03/29 01:22:00;;;;;;;38.25;20.55;;;6.50;99.90;;;;;;5046452;28;20059;-67
2022/03/29 01:24:26;;;;;;;36.80;19.85;;;6.60;99.90;;;;;;5069431;28;20041;-67
2022/03/29 01:26:56;;;;;;;34.35;19.35;;;6.80;99.90;;;;;;5067063;28;20072;-67
2022/03/29 01:29:22;;;;;;;37.83;19.73;;;6.50;99.90;;;;;;5069511;28;20044;-69
2022/03/29 01:31:51;;;;;;;33.53;18.55;;;6.50;99.90;;;;;;5030411;28;20098;-67
2022/03/29 01:34:19;;;;;;;37.78;18.23;;;6.50;99.90;;;;;;5064158;28;20047;-67
2022/03/29 01:36:45;;;;;;;37.03;19.23;;;6.60;99.90;;;;;;5069204;28;20040;-67
2022/03/29 01:39:11;;;;;;;34.03;18.10;;;6.60;99.90;;;;;;5069213;28;20493;-68
2022/03/29 01:41:38;;;;;;;35.20;19.25;;;6.50;99.90;;;;;;5065742;28;20037;-67
2022/03/29 01:44:10;;;;;;;34.17;17.88;;;6.50;99.90;;;;;;5073875;28;20048;-67
2022/03/29 01:46:36;;;;;;;32.40;17.65;;;6.40;99.90;;;;;;5071410;28;20047;-68
2022/03/29 01:49:03;;;;;;;33.53;18.27;;;6.50;99.90;;;;;;5073955;28;20448;-67
2022/03/29 01:51:29;;;;;;;37.40;20.80;;;6.50;99.90;;;;;;5071046;28;20359;-67
2022/03/29 01:53:59;;;;;;;40.03;20.30;;;6.40;99.90;;;;;;5071025;28;20044;-67
2022/03/29 01:56:29;;;;;;;36.75;19.42;;;6.50;99.90;;;;;;5073746;28;20042;-67
2022/03/29 01:58:56;;;;;;;35.25;18.30;;;6.50;99.90;;;;;;5074555;28;20051;-67
2022/03/29 02:01:22;;;;;;;39.17;18.45;;;6.50;99.90;;;;;;5073001;28;20466;-68
2022/03/29 02:03:47;;;;;;;42.75;19.23;;;6.70;99.90;;;;;;5066226;28;20068;-69
2022/03/29 02:06:13;;;;;;;37.38;18.33;;;6.50;99.90;;;;;;5056135;28;20122;-68
2022/03/29 02:08:39;;;;;;;37.10;18.83;;;6.50;99.90;;;;;;5071770;28;20040;-68
2022/03/29 02:11:05;;;;;;;41.63;20.20;;;6.80;99.90;;;;;;5064723;28;20043;-68
2022/03/29 02:13:30;;;;;;;33.20;17.92;;;6.50;99.90;;;;;;5071616;28;20048;-66
2022/03/29 02:15:56;;;;;;;33.45;18.13;;;6.50;99.90;;;;;;5072650;28;20033;-68
2022/03/29 02:18:21;;;;;;;38.28;19.58;;;6.50;99.90;;;;;;5074396;28;20028;-68
2022/03/29 02:20:47;;;;;;;36.95;19.67;;;6.40;99.90;;;;;;5058512;28;20075;-67
2022/03/29 02:23:15;;;;;;;38.53;20.50;;;6.40;99.90;;;;;;5075207;28;20040;-67
2022/03/29 02:25:42;;;;;;;29.90;18.98;;;6.40;99.90;;;;;;5069775;28;20041;-67
2022/03/29 02:28:08;;;;;;;40.13;20.75;;;6.40;99.90;;;;;;5074187;28;20040;-68
2022/03/29 02:30:35;;;;;;;39.10;19.58;;;6.30;99.90;;;;;;5068558;28;20039;-66
2022/03/29 02:33:02;;;;;;;40.23;19.50;;;6.40;99.90;;;;;;5072485;28;20064;-67
2022/03/29 02:35:28;;;;;;;36.92;18.42;;;6.40;99.90;;;;;;5053292;28;20310;-67
2022/03/29 02:37:54;;;;;;;34.53;19.65;;;6.40;99.90;;;;;;5070421;28;20402;-67
2022/03/29 02:40:19;;;;;;;44.30;19.70;;;6.40;99.90;;;;;;5069048;28;20044;-67
2022/03/29 02:42:53;;;;;;;35.35;18.55;;;6.40;99.90;;;;;;5073705;28;20041;-68
2022/03/29 02:45:20;;;;;;;37.45;19.30;;;6.30;99.90;;;;;;5071730;28;20037;-67
2022/03/29 02:47:55;;;;;;;35.30;20.40;;;6.40;99.90;;;;;;5072348;28;20049;-67
2022/03/29 02:50:22;;;;;;;44.22;20.58;;;6.40;99.90;;;;;;5071519;28;20028;-67
2022/03/29 02:52:50;;;;;;;39.78;18.88;;;6.60;99.90;;;;;;5054927;28;20055;-66
2022/03/29 02:55:18;;;;;;;34.55;19.95;;;6.40;99.90;;;;;;5069535;28;20040;-67
2022/03/29 02:57:44;;;;;;;;;;;6.40;99.90;;;;;;5073030;28;20110;-67
2022/03/29 03:00:12;;;;;;;37.92;20.50;;;6.40;99.90;;;;;;5072549;28;19924;-67
2022/03/29 03:02:38;;;;;;;35.65;19.00;;;6.30;99.90;;;;;;5073434;28;20095;-68
2022/03/29 03:05:04;;;;;;;40.22;19.92;;;6.40;99.90;;;;;;5073210;28;20075;-67
2022/03/29 03:07:30;;;;;;;36.70;18.80;;;6.40;99.90;;;;;;5073341;28;20442;-67
2022/03/29 03:09:55;;;;;;;35.85;18.90;;;6.40;99.90;;;;;;5035632;28;20048;-69
2022/03/29 03:12:21;;;;;;;38.05;20.20;;;6.30;99.90;;;;;;5058546;28;20098;-67
2022/03/29 03:14:48;;;;;;;43.28;19.60;;;6.30;99.90;;;;;;5077490;28;20051;-68
2022/03/29 03:17:13;;;;;;;42.08;20.70;;;6.40;99.90;;;;;;5070785;28;20465;-68
2022/03/29 03:19:39;;;;;;;40.33;20.35;;;6.30;99.90;;;;;;5068240;28;20076;-67
2022/03/29 03:22:04;;;;;;;43.38;20.63;;;6.40;99.90;;;;;;5073106;28;20517;-66
2022/03/29 03:24:30;;;;;;;36.88;19.42;;;6.30;99.90;;;;;;5071911;28;20422;-67
2022/03/29 03:26:56;;;;;;;39.55;19.70;;;6.30;99.90;;;;;;5072034;28;20106;-68
2022/03/29 03:29:22;;;;;;;35.30;19.42;;;6.30;99.90;;;;;;5062897;28;20483;-67
2022/03/29 03:31:47;;;;;;;41.83;19.85;;;6.30;99.90;;;;;;5071020;28;20071;-66
2022/03/29 03:34:14;;;;;;;45.03;21.33;;;6.30;99.90;;;;;;5071800;28;20048;-68
2022/03/29 03:36:40;;;;;;;40.50;20.15;;;6.40;99.90;;;;;;5051358;28;20366;-67
2022/03/29 03:39:06;;;;;;;48.83;21.23;;;6.40;99.90;;;;;;5065612;28;20469;-67
2022/03/29 03:41:32;;;;;;;39.60;19.92;;;6.40;99.90;;;;;;5072488;28;20119;-67
2022/03/29 03:43:57;;;;;;;35.85;19.48;;;6.40;99.90;;;;;;5072944;28;20065;-68
2022/03/29 03:46:24;;;;;;;41.25;19.55;;;6.40;99.90;;;;;;5051705;28;20107;-68
2022/03/29 03:48:52;;;;;;;40.47;20.23;;;6.40;99.90;;;;;;5073405;28;20040;-67
2022/03/29 03:51:18;;;;;;;49.25;22.98;;;6.50;99.90;;;;;;5052114;28;20106;-68
2022/03/29 03:53:44;;;;;;;42.08;21.27;;;6.40;99.90;;;;;;5071931;28;20123;-67
2022/03/29 03:56:10;;;;;;;43.75;21.58;;;6.40;99.90;;;;;;5050690;28;20043;-67
2022/03/29 03:58:36;;;;;;;45.65;21.35;;;6.40;99.90;;;;;;5071463;28;20478;-68
2022/03/29 04:01:01;;;;;;;53.63;21.50;;;6.40;99.90;;;;;;5054424;28;20489;-68
2022/03/29 04:03:27;;;;;;;39.90;22.42;;;6.40;99.90;;;;;;5054367;28;20047;-68
2022/03/29 04:05:53;;;;;;;41.65;20.88;;;6.40;99.90;;;;;;5052877;28;20045;-68
2022/03/29 04:08:18;;;;;;;39.47;21.98;;;6.40;99.90;;;;;;5071411;28;20398;-68
2022/03/29 04:10:44;;;;;;;38.30;21.55;;;6.40;99.90;;;;;;5070464;28;20048;-67
2022/03/29 04:13:10;;;;;;;47.25;21.15;;;6.40;99.90;;;;;;5070229;28;20510;-67
2022/03/29 04:15:37;;;;;;;42.72;20.60;;;6.40;99.90;;;;;;5071885;28;20052;-67
2022/03/29 04:18:03;;;;;;;38.78;22.15;;;6.40;99.90;;;;;;5068429;28;20393;-66
2022/03/29 04:20:29;;;;;;;40.42;21.67;;;6.40;99.90;;;;;;5072591;28;20041;-67
2022/03/29 04:22:55;;;;;;;40.95;21.27;;;6.40;99.90;;;;;;5072896;28;20045;-68
2022/03/29 04:25:22;;;;;;;40.00;21.70;;;6.40;99.90;;;;;;5066637;28;20044;-67
2022/03/29 04:27:47;;;;;;;42.75;23.40;;;6.40;99.90;;;;;;5069016;28;20182;-68
2022/03/29 04:30:13;;;;;;;46.90;24.17;;;6.40;99.90;;;;;;5071510;28;20131;-66
2022/03/29 04:32:39;;;;;;;55.30;25.20;;;6.40;99.90;;;;;;5071509;28;20394;-68
2022/03/29 04:35:06;;;;;;;45.58;23.67;;;6.40;99.90;;;;;;5053008;28;20303;-67
2022/03/29 04:37:34;;;;;;;47.03;24.23;;;6.30;99.90;;;;;;5068837;28;20483;-66
2022/03/29 04:40:01;;;;;;;48.55;25.48;;;6.30;99.90;;;;;;5039643;28;20482;-66
2022/03/29 04:42:27;;;;;;;44.97;24.38;;;6.40;99.90;;;;;;5067211;28;20033;-67
2022/03/29 04:44:53;;;;;;;46.45;26.30;;;6.40;99.90;;;;;;5070094;28;20060;-67
2022/03/29 04:47:18;;;;;;;47.45;24.08;;;6.40;99.90;;;;;;5071511;28;20052;-68
2022/03/29 04:49:44;;;;;;;44.25;24.13;;;6.40;99.90;;;;;;5067557;28;20102;-67
2022/03/29 04:52:10;;;;;;;48.20;24.75;;;6.40;99.90;;;;;;5072016;28;20041;-67
2022/03/29 04:54:36;;;;;;;49.05;25.38;;;6.60;99.90;;;;;;5054413;28;20033;-67
2022/03/29 04:57:03;;;;;;;49.40;25.92;;;8.00;99.90;;;;;;5051640;28;20130;-68
2022/03/29 04:59:29;;;;;;;42.28;24.95;;;6.40;99.90;;;;;;5070893;28;20131;-67
2022/03/29 05:01:54;;;;;;;48.83;24.25;;;6.40;99.90;;;;;;5050675;28;20897;-66
2022/03/29 05:04:20;;;;;;;53.53;26.65;;;6.40;99.90;;;;;;5068664;28;20517;-65
2022/03/29 05:06:46;;;;;;;45.15;25.02;;;6.40;99.90;;;;;;5049291;28;20071;-67
2022/03/29 05:09:11;;;;;;;54.63;25.00;;;6.40;99.90;;;;;;5057021;28;20040;-67
2022/03/29 05:11:37;;;;;;;48.90;25.58;;;6.40;99.90;;;;;;5068300;28;20044;-68
2022/03/29 05:14:03;;;;;;;49.03;25.02;;;6.40;99.90;;;;;;5067605;28;20036;-67
2022/03/29 05:16:28;;;;;;;49.90;25.20;;;6.40;99.90;;;;;;5070424;28;20036;-72
2022/03/29 05:18:54;;;;;;;50.08;25.90;;;6.40;99.90;;;;;;5071236;28;20040;-68
2022/03/29 05:21:20;;;;;;;56.38;27.10;;;6.40;99.90;;;;;;5040111;28;20033;-69
2022/03/29 05:23:48;;;;;;;50.80;26.38;;;6.40;99.90;;;;;;5051178;28;20387;-67
2022/03/29 05:26:14;;;;;;;49.90;25.85;;;6.40;99.90;;;;;;5073071;28;20045;-67
2022/03/29 05:28:40;;;;;;;50.20;24.92;;;6.40;99.90;;;;;;5070500;28;20048;-66
2022/03/29 05:31:05;;;;;;;49.85;25.17;;;6.40;99.90;;;;;;5068445;28;20075;-67
2022/03/29 05:33:32;;;;;;;55.05;25.02;;;6.50;99.90;;;;;;5070718;28;20051;-67
2022/03/29 05:35:58;;;;;;;50.83;25.25;;;6.50;99.90;;;;;;5055932;28;20041;-67
2022/03/29 05:38:24;;;;;;;48.75;25.50;;;6.50;99.90;;;;;;5048062;28;20048;-67
2022/03/29 05:40:49;;;;;;;46.35;23.35;;;6.50;99.90;;;;;;5071587;28;20135;-67
2022/03/29 05:43:16;;;;;;;40.15;21.65;;;6.50;99.90;;;;;;5068493;28;20046;-67
2022/03/29 05:45:42;;;;;;;50.58;23.17;;;6.50;99.90;;;;;;5072991;28;20074;-67
2022/03/29 05:50:52;;;;;;;36.22;21.48;;;6.50;99.90;;;;;;5061597;28;20048;-66
2022/03/29 05:53:18;;;;;;;51.30;23.27;;;6.50;99.90;;;;;;5058380;28;20394;-67
2022/03/29 05:55:45;;;;;;;47.20;22.85;;;6.50;99.90;;;;;;5051327;28;20409;-67
2022/03/29 05:58:11;;;;;;;46.70;23.10;;;6.50;99.90;;;;;;5070416;28;20041;-67
2022/03/29 06:00:37;;;;;;;46.65;22.35;;;6.40;99.90;;;;;;5036263;28;20048;-68
2022/03/29 06:03:03;;;;;;;46.28;24.63;;;6.50;99.90;;;;;;5050790;28;20098;-67
2022/03/29 06:05:29;;;;;;;44.70;24.23;;;6.50;99.90;;;;;;5071254;28;20048;-67
2022/03/29 06:07:55;;;;;;;56.20;23.52;;;6.50;99.90;;;;;;5049274;28;20047;-67
2022/03/29 06:10:20;;;;;;;52.55;25.42;;;6.50;99.90;;;;;;5071286;28;20032;-67
2022/03/29 06:12:47;;;;;;;46.42;23.70;;;6.60;99.90;;;;;;5071050;28;20106;-66
2022/03/29 06:15:13;;;;;;;41.92;21.50;;;6.60;99.90;;;;;;5052288;28;20036;-68
2022/03/29 06:17:39;;;;;;;49.03;23.63;;;6.60;99.90;;;;;;5056396;28;20368;-67
2022/03/29 06:20:07;;;;;;;46.92;22.05;;;6.60;99.90;;;;;;5063342;28;20094;-67
2022/03/29 06:22:38;;;;;;;46.65;23.48;;;6.60;99.90;;;;;;5053344;28;20498;-66
2022/03/29 06:25:04;;;;;;;46.22;22.65;;;6.60;99.90;;;;;;5067232;28;20052;-68
2022/03/29 06:27:30;;;;;;;48.15;22.92;;;6.70;99.90;;;;;;5072979;28;20059;-68
2022/03/29 06:29:57;;;;;;;44.90;23.08;;;6.70;99.90;;;;;;5040781;28;20040;-67
2022/03/29 06:32:23;;;;;;;51.25;25.30;;;6.70;99.90;;;;;;5067118;28;20082;-68
2022/03/29 06:34:49;;;;;;;48.55;23.42;;;6.70;99.90;;;;;;5078527;28;20036;-68
2022/03/29 06:37:15;;;;;;;44.42;23.45;;;6.80;99.90;;;;;;5058092;28;20094;-67
2022/03/29 06:39:40;;;;;;;45.55;23.83;;;6.80;99.90;;;;;;5054702;28;20044;-67
2022/03/29 06:42:06;;;;;;;47.25;24.33;;;6.70;99.90;;;;;;5054754;28;20044;-67
2022/03/29 06:44:33;;;;;;;49.90;25.23;;;6.80;99.90;;;;;;5072586;28;20043;-68
2022/03/29 06:47:01;;;;;;;45.45;24.08;;;7.10;99.90;;;;;;5054501;28;20064;-67
2022/03/29 06:49:27;;;;;;;41.53;23.43;;;6.80;99.90;;;;;;5036656;28;20087;-67
2022/03/29 06:51:52;;;;;;;48.78;22.77;;;6.90;99.90;;;;;;5054590;28;20113;-67
2022/03/29 06:54:18;;;;;;;40.45;22.88;;;6.90;99.90;;;;;;5052006;28;20045;-68
2022/03/29 06:56:44;;;;;;;41.70;22.25;;;6.90;99.90;;;;;;5061520;28;20040;-65
2022/03/29 06:59:10;;;;;;;53.45;23.63;;;6.90;99.90;;;;;;5068636;28;20124;-67
2022/03/29 07:01:36;;;;;;;49.33;23.02;;;6.90;99.90;;;;;;5056507;28;20045;-68
2022/03/29 07:04:03;;;;;;;45.53;23.35;;;7.00;99.90;;;;;;5074517;28;20414;-68
2022/03/29 07:06:31;;;;;;;46.95;22.13;;;7.00;99.90;;;;;;5074745;28;20047;-67
2022/03/29 07:11:42;;;;;;;48.47;23.80;;;8.00;99.90;;;;;;5056325;28;20128;-68
2022/03/29 07:14:08;;;;;;;49.00;22.85;;;7.10;99.90;;;;;;5066831;28;20047;-67
2022/03/29 07:16:34;;;;;;;44.67;22.75;;;7.10;99.90;;;;;;5054596;28;20044;-68
2022/03/29 07:19:00;;;;;;;39.65;20.65;;;7.50;99.90;;;;;;5054283;28;20553;-67
2022/03/29 07:21:25;;;;;;;46.63;21.60;;;7.30;99.90;;;;;;5054169;28;20041;-66
2022/03/29 07:23:51;;;;;;;48.35;22.02;;;7.60;99.90;;;;;;5071059;28;20036;-67
2022/03/29 07:26:17;;;;;;;38.55;22.10;;;7.30;99.90;;;;;;5073822;28;20494;-67
2022/03/29 07:28:43;;;;;;;49.63;21.90;;;7.40;99.90;;;;;;5073516;28;20094;-67
2022/03/29 07:31:09;;;;;;;49.50;22.48;;;7.40;99.90;;;;;;5051593;28;20045;-67
2022/03/29 07:33:34;;;;;;;39.75;23.25;;;7.50;99.90;;;;;;5064940;28;20119;-67
2022/03/29 07:36:03;;;;;;;43.63;22.42;;;7.60;99.90;;;;;;5060339;28;20040;-67
2022/03/29 07:38:29;;;;;;;45.55;20.90;;;7.60;99.90;;;;;;5053723;28;20135;-68
2022/03/29 07:40:55;;;;;;;47.90;22.20;;;7.80;99.90;;;;;;5054081;28;20741;-68
2022/03/29 07:43:22;;;;;;;44.42;21.77;;;7.80;99.90;;;;;;5064843;28;20159;-67
2022/03/29 07:45:48;;;;;;;42.55;22.45;;;8.00;99.90;;;;;;5073845;28;20066;-67
2022/03/29 07:48:13;;;;;;;41.50;20.75;;;8.00;99.90;;;;;;5065145;28;20041;-67
2022/03/29 07:50:40;;;;;;;37.15;20.90;;;8.10;99.90;;;;;;5053544;28;20048;-68
2022/03/29 07:53:06;;;;;;;42.05;21.23;;;8.10;99.90;;;;;;5053320;28;20056;-66
2022/03/29 07:55:33;;;;;;;36.20;20.00;;;8.10;99.90;;;;;;5053865;28;20049;-67
2022/03/29 07:57:59;;;;;;;42.47;19.27;;;8.20;99.90;;;;;;5067961;28;20080;-67
2022/03/29 08:00:34;;;;;;;35.22;18.02;;;8.20;99.90;;;;;;5056819;28;20074;-68
2022/03/29 08:03:10;;;;;;;42.72;20.30;;;8.20;99.90;;;;;;5053348;28;20045;-67
2022/03/29 08:05:37;;;;;;;34.80;18.70;;;8.30;99.90;;;;;;5053395;28;20125;-68
2022/03/29 08:08:04;;;;;;;36.80;18.75;;;8.30;99.90;;;;;;5066430;28;20044;-67
2022/03/29 08:10:31;;;;;;;38.40;18.73;;;8.30;99.90;;;;;;5082100;28;20076;-67
2022/03/29 08:13:02;;;;;;;40.40;19.20;;;8.30;99.90;;;;;;5060637;28;20047;-67
2022/03/29 08:15:29;;;;;;;37.58;18.30;;;8.30;99.90;;;;;;5039254;28;20071;-68
2022/03/29 08:17:56;;;;;;;46.80;18.88;;;8.20;99.90;;;;;;5034176;28;20407;-65
2022/03/29 08:20:21;;;;;;;37.10;18.20;;;8.20;99.90;;;;;;5082014;28;20055;-67
2022/03/29 08:22:47;;;;;;;41.67;19.20;;;8.20;99.90;;;;;;5050975;28;20045;-67
2022/03/29 08:25:15;;;;;;;39.42;16.73;;;8.30;99.90;;;;;;5058022;28;20106;-67
2022/03/29 08:27:42;;;;;;;41.13;16.55;;;8.40;99.90;;;;;;5064629;28;20098;-68
2022/03/29 08:30:09;;;;;;;38.33;15.77;;;8.20;99.90;;;;;;5068326;28;20060;-69
2022/03/29 08:32:36;;;;;;;35.58;16.33;;;8.10;99.90;;;;;;5060993;28;20101;-67
2022/03/29 08:35:03;;;;;;;45.15;15.70;;;8.10;99.90;;;;;;5045715;28;20040;-68
2022/03/29 08:37:29;;;;;;;27.83;14.97;;;8.10;99.90;;;;;;5032194;28;20052;-68
2022/03/29 08:39:55;;;;;;;35.35;15.50;;;8.20;99.90;;;;;;5032362;28;20434;-68
2022/03/29 08:42:23;;;;;;;28.88;12.43;;;8.30;99.90;;;;;;5064486;28;20482;-67
2022/03/29 08:44:49;;;;;;;34.88;13.38;;;8.50;99.90;;;;;;5051287;28;20044;-67
2022/03/29 08:47:15;;;;;;;34.17;13.38;;;7.90;99.90;;;;;;5068403;28;20417;-68
2022/03/29 08:49:44;;;;;;;37.17;12.50;;;8.30;99.90;;;;;;5046748;28;20356;-67
2022/03/29 08:52:11;;;;;;;27.60;11.52;;;8.30;99.90;;;;;;5049468;28;20111;-68
2022/03/29 08:54:37;;;;;;;32.47;12.38;;;8.30;99.90;;;;;;5049621;28;20147;-67
2022/03/29 08:57:03;;;;;;;38.25;12.77;;;8.40;99.90;;;;;;5066209;28;20051;-68
2022/03/29 08:59:29;;;;;;;30.77;11.60;;;8.50;99.90;;;;;;5050239;28;20144;-67
2022/03/29 09:01:57;;;;;;;28.65;11.40;;;8.70;99.90;;;;;;5051262;28;20059;-68
2022/03/29 09:04:24;;;;;;;29.55;11.93;;;8.70;99.90;;;;;;5049304;28;20080;-68
2022/03/29 09:06:50;;;;;;;28.20;10.73;;;8.70;99.90;;;;;;5053892;28;20119;-67
2022/03/29 09:09:33;;;;;;;29.33;10.52;;;8.70;99.90;;;;;;5069356;28;20561;-67
2022/03/29 09:12:13;;;;;;;34.58;10.45;;;8.70;99.90;;;;;;5049318;28;20098;-67
2022/03/29 09:14:59;;;;;;;27.95;10.20;;;8.80;99.90;;;;;;5020965;28;20444;-66
2022/03/29 09:17:34;;;;;;;28.30;10.10;;;8.90;99.90;;;;;;5068074;28;20055;-68
2022/03/29 09:20:05;;;;;;;34.63;11.38;;;9.00;99.90;;;;;;5054091;28;20052;-68
2022/03/29 09:22:35;;;;;;;28.65;10.25;;;9.10;99.90;;;;;;5048593;28;20438;-68
2022/03/29 09:25:01;;;;;;;26.58;9.02;;;9.20;99.90;;;;;;5060561;28;20049;-66
2022/03/29 09:27:27;;;;;;;27.00;9.68;;;9.20;99.90;;;;;;5066108;28;20049;-67
2022/03/29 09:30:09;;;;;;;26.52;10.30;;;9.30;99.90;;;;;;5067573;28;20477;-66
2022/03/29 09:32:57;;;;;;;31.42;9.77;;;9.30;99.90;;;;;;5050132;28;20581;-67
2022/03/29 09:35:24;;;;;;;27.15;10.27;;;9.50;99.90;;;;;;5055993;28;20095;-67
2022/03/29 09:37:50;;;;;;;30.88;10.98;;;9.50;99.90;;;;;;5048382;28;20045;-67
2022/03/29 09:40:17;;;;;;;26.25;9.70;;;9.70;99.90;;;;;;5038127;28;20041;-68
2022/03/29 09:43:06;;;;;;;24.73;9.50;;;9.80;99.90;;;;;;5062449;28;20051;-67
2022/03/29 09:45:47;;;;;;;26.17;9.45;;;10.00;99.90;;;;;;5055154;28;20053;-67
2022/03/29 09:48:21;;;;;;;28.33;9.95;;;10.00;99.90;;;;;;5057529;28;20052;-67
2022/03/29 09:50:47;;;;;;;27.33;9.25;;;10.10;99.90;;;;;;5043097;28;20520;-67
2022/03/29 09:53:39;;;;;;;33.00;10.00;;;10.20;99.90;;;;;;5067602;28;20143;-68
2022/03/29 09:56:08;;;;;;;25.35;9.65;;;10.20;99.90;;;;;;5033228;28;20044;-68
2022/03/29 09:58:34;;;;;;;30.88;10.05;;;10.30;99.90;;;;;;5068108;28;20052;-67
2022/03/29 10:01:00;;;;;;;27.23;10.27;;;10.30;99.90;;;;;;5029051;28;20528;-67
2022/03/29 10:03:27;;;;;;;28.08;10.02;;;10.30;99.90;;;;;;5062311;28;20604;-67
2022/03/29 10:06:01;;;;;;;23.45;8.23;;;10.30;99.90;;;;;;5064205;28;20049;-66
2022/03/29 10:11:16;;;;;;;26.05;9.13;;;10.50;99.90;;;;;;5066087;28;20060;-67
2022/03/29 10:13:42;;;;;;;26.85;8.90;;;10.40;99.90;;;;;;5062842;28;20076;-66
2022/03/29 10:16:14;;;;;;;31.83;9.18;;;10.30;99.90;;;;;;5034004;28;20048;-68
2022/03/29 10:18:42;;;;;;;31.67;8.85;;;10.10;99.90;;;;;;5056034;28;20033;-68
2022/03/29 10:21:12;;;;;;;30.10;9.23;;;10.10;99.90;;;;;;5069318;28;20505;-68
2022/03/29 10:23:38;;;;;;;30.73;8.13;;;10.10;99.90;;;;;;5053927;28;20053;-68
2022/03/29 10:26:04;;;;;;;25.48;8.18;;;10.10;99.90;;;;;;5071669;28;20525;-66
2022/03/29 10:28:30;;;;;;;24.35;7.78;;;10.20;99.90;;;;;;5053575;28;20068;-66
2022/03/29 10:30:57;;;;;;;25.20;8.27;;;10.20;99.90;;;;;;5046035;28;20045;-68
2022/03/29 10:33:33;;;;;;;29.20;8.85;;;10.40;99.90;;;;;;5042803;28;20048;-68
2022/03/29 10:35:58;;;;;;;20.17;7.95;;;10.80;99.90;;;;;;5068212;28;20056;-68
2022/03/29 10:38:43;;;;;;;23.02;7.57;;;11.50;99.90;;;;;;5067317;28;20040;-67
2022/03/29 10:41:28;;;;;;;27.85;8.00;;;11.80;99.90;;;;;;5070912;28;20410;-67
2022/03/29 10:44:12;;;;;;;28.65;7.75;;;11.60;99.90;;;;;;5052353;28;20399;-69
2022/03/29 10:46:39;;;;;;;22.98;7.20;;;11.50;99.90;;;;;;5051241;28;20136;-68
2022/03/29 10:49:34;;;;;;;21.17;7.22;;;11.60;99.90;;;;;;5064926;28;20067;-68
2022/03/29 10:52:06;;;;;;;20.55;7.00;;;11.40;99.90;;;;;;5070168;28;20048;-66
2022/03/29 10:54:41;;;;;;;21.10;7.32;;;11.30;99.90;;;;;;5047796;28;20623;-67
2022/03/29 10:57:24;;;;;;;28.92;8.02;;;11.20;99.90;;;;;;5052143;28;20295;-68
2022/03/29 11:00:11;;;;;;;23.17;7.45;;;11.00;99.90;;;;;;5051467;28;20045;-67
2022/03/29 11:02:38;;;;;;;23.33;7.38;;;11.10;99.90;;;;;;5058635;28;20056;-66
2022/03/29 11:05:04;;;;;;;18.75;6.93;;;11.10;99.90;;;;;;5091622;28;20127;-67
2022/03/29 11:07:31;;;;;;;29.90;7.45;;;11.10;99.90;;;;;;5073396;28;20128;-66
2022/03/29 11:10:19;;;;;;;21.70;7.40;;;11.10;99.90;;;;;;5076885;28;20051;-67
2022/03/29 11:12:51;;;;;;;22.23;7.60;;;11.10;99.90;;;;;;5069450;28;20041;-68
2022/03/29 11:15:35;;;;;;;21.95;7.28;;;11.20;99.90;;;;;;5032982;28;20037;-67
2022/03/29 11:18:04;;;;;;;19.75;6.60;;;11.40;99.90;;;;;;5067745;28;20059;-67
2022/03/29 11:20:30;;;;;;;19.42;7.13;;;11.40;99.90;;;;;;5071143;28;20040;-68
2022/03/29 11:22:58;;;;;;;22.10;7.10;;;11.30;99.90;;;;;;5059189;28;20045;-67
2022/03/29 11:25:25;;;;;;;27.30;7.72;;;11.10;99.90;;;;;;5069469;28;20048;-67
2022/03/29 11:27:50;;;;;;;25.00;7.50;;;11.10;99.90;;;;;;5070049;28;20040;-68
2022/03/29 11:30:16;;;;;;;20.35;6.80;;;11.10;99.90;;;;;;5070450;28;20460;-67
2022/03/29 11:32:47;;;;;;;22.42;6.85;;;11.00;99.90;;;;;;5063008;28;20087;-68
2022/03/29 11:35:15;;;;;;;20.85;6.93;;;10.80;99.90;;;;;;5052005;28;20386;-67
2022/03/29 11:37:44;;;;;;;26.25;7.45;;;10.60;99.90;;;;;;5052237;28;20060;-67
2022/03/29 11:40:12;;;;;;;25.30;7.13;;;10.40;99.90;;;;;;5062245;28;20078;-68
2022/03/29 11:43:05;;;;;;;20.08;6.50;;;10.50;99.90;;;;;;5070295;28;20045;-67
2022/03/29 11:45:39;;;;;;;20.33;7.97;;;10.60;99.90;;;;;;5065027;28;20056;-67
2022/03/29 11:48:08;;;;;;;29.42;7.57;;;10.50;99.90;;;;;;5050812;28;20057;-67
2022/03/29 11:50:54;;;;;;;24.70;7.55;;;10.20;99.90;;;;;;5066968;28;20040;-68
2022/03/29 11:53:24;;;;;;;27.42;9.43;;;10.10;99.90;;;;;;5058491;28;20049;-66
2022/03/29 11:56:00;;;;;;;30.05;8.77;;;9.70;99.90;;;;;;5067087;28;20045;-66
2022/03/29 11:58:37;;;;;;;29.25;8.18;;;9.70;99.90;;;;;;5076179;28;20051;-65
2022/03/29 12:01:32;;;;;;;26.65;8.10;;;9.70;99.90;;;;;;5054383;28;20124;-69
2022/03/29 12:04:03;;;;;;;26.30;7.80;;;9.80;99.90;;;;;;5034196;28;20064;-66
2022/03/29 12:06:42;;;;;;;25.20;8.73;;;9.70;99.90;;;;;;5048537;28;20513;-68
2022/03/29 12:09:08;;;;;;;19.83;7.32;;;9.70;99.90;;;;;;5069434;28;20117;-68
2022/03/29 12:11:39;;;;;;;27.15;7.72;;;10.10;99.90;;;;;;5050500;28;20494;-67
2022/03/29 12:14:17;;;;;;;26.65;7.47;;;9.90;99.90;;;;;;5078888;28;20044;-67
2022/03/29 12:16:48;;;;;;;32.80;8.60;;;9.80;99.90;;;;;;5070692;28;20072;-67
2022/03/29 12:19:14;;;;;;;16.65;6.53;;;10.10;99.90;;;;;;5066606;28;20051;-67
2022/03/29 12:21:44;;;;;;;23.63;8.07;;;10.20;99.90;;;;;;5054243;28;20052;-67
2022/03/29 12:24:11;;;;;;;23.13;7.35;;;10.50;99.90;;;;;;5050323;28;20048;-69
2022/03/29 12:26:41;;;;;;;22.75;8.07;;;10.40;99.90;;;;;;5040583;28;20048;-68
2022/03/29 12:29:12;;;;;;;25.45;8.13;;;11.30;99.90;;;;;;5069407;28;20059;-67
2022/03/29 12:31:41;;;;;;;21.00;8.10;;;10.70;99.90;;;;;;5073506;28;20383;-67
2022/03/29 12:34:08;;;;;;;21.83;8.23;;;10.60;99.90;;;;;;5050119;28;20044;-67
2022/03/29 12:36:37;;;;;;;25.85;8.52;;;10.70;99.90;;;;;;5069218;28;20117;-68
2022/03/29 12:39:06;;;;;;;30.52;9.88;;;10.80;99.90;;;;;;5069685;28;20052;-67
2022/03/29 12:41:47;;;;;;;24.83;9.88;;;10.80;99.90;;;;;;5047680;28;20037;-65
2022/03/29 12:44:36;;;;;;;24.77;9.10;;;10.70;99.90;;;;;;5049431;28;20400;-67
2022/03/29 12:47:04;;;;;;;25.35;9.48;;;10.80;99.90;;;;;;5050652;28;20114;-67
2022/03/29 12:49:30;;;;;;;31.10;10.65;;;10.70;99.90;;;;;;5034019;28;20052;-67
2022/03/29 12:52:00;;;;;;;28.73;10.07;;;10.80;99.90;;;;;;5045278;28;20055;-66
2022/03/29 12:54:44;;;;;;;29.05;9.82;;;10.70;99.90;;;;;;5066965;28;20521;-67